createdAt,value
2023-05-01T00:01:43.856Z,13.37
2023-05-01T00:04:28.273Z,13.19
2023-05-01T00:07:07.658Z,13.22
2023-05-01T00:09:47.203Z,12.78
2023-05-01T00:12:26.588Z,12.59
2023-05-01T00:15:05.877Z,12.50
2023-05-01T00:17:45.226Z,12.73
2023-05-01T00:20:29.898Z,12.10
2023-05-01T00:23:09.869Z,11.71
2023-05-01T00:25:49.123Z,12.14
2023-05-01T00:28:28.577Z,12.44
2023-05-01T00:31:07.850Z,12.24
2023-05-01T00:33:47.527Z,13.11
2023-05-01T00:36:32.989Z,12.68
2023-05-01T00:39:12.728Z,12.39
2023-05-01T00:41:52.147Z,14.20
2023-05-01T00:44:31.965Z,15.98
2023-05-01T00:47:11.405Z,15.96
2023-05-01T00:49:53.362Z,17.25
2023-05-01T00:52:38.372Z,14.75
2023-05-01T00:55:18.051Z,14.88
2023-05-01T00:57:57.628Z,14.34
2023-05-01T01:00:37.148Z,15.12
2023-05-01T01:03:16.732Z,16.89
2023-05-01T01:06:01.629Z,19.38
2023-05-01T01:08:53.448Z,17.81
2023-05-01T01:11:41.641Z,17.20
2023-05-01T01:14:27.126Z,16.40
2023-05-01T01:17:18.211Z,15.62
2023-05-01T01:20:26.874Z,14.69
2023-05-01T01:23:25.777Z,15.33
2023-05-01T01:26:45.878Z,15.10
2023-05-01T01:29:50.754Z,15.59
2023-05-01T01:33:05.168Z,15.65
2023-05-01T01:35:59.269Z,16.19
2023-05-01T01:38:49.859Z,15.64
2023-05-01T01:41:38.140Z,15.68
2023-05-01T01:44:26.410Z,14.97
2023-05-01T01:47:09.140Z,14.45
2023-05-01T01:49:54.881Z,14.38
2023-05-01T01:52:43.106Z,14.50
2023-05-01T01:55:25.102Z,14.15
2023-05-01T01:58:08.181Z,14.69
2023-05-01T02:00:51.818Z,15.27
2023-05-01T02:03:32.875Z,14.62
2023-05-01T02:06:15.042Z,14.33
2023-05-01T02:09:02.041Z,14.27
2023-05-01T02:11:44.090Z,13.48
2023-05-01T02:14:27.466Z,11.99
2023-05-01T02:17:07.149Z,11.75
2023-05-01T02:19:47.137Z,11.06
2023-05-01T02:22:29.367Z,11.37
2023-05-01T02:25:17.924Z,11.12
2023-05-01T02:28:03.961Z,11.13
2023-05-01T02:30:43.552Z,12.15
2023-05-01T02:33:22.938Z,12.78
2023-05-01T02:36:02.328Z,14.05
2023-05-01T02:38:42.120Z,14.36
2023-05-01T02:41:29.419Z,13.83
2023-05-01T02:44:10.967Z,15.01
2023-05-01T02:46:54.713Z,14.76
2023-05-01T02:49:35.709Z,15.45
2023-05-01T02:52:15.471Z,14.89
2023-05-01T02:54:55.798Z,14.69
2023-05-01T02:57:40.411Z,14.86
2023-05-01T03:00:21.972Z,16.43
2023-05-01T03:03:01.525Z,15.47
2023-05-01T03:05:40.903Z,15.14
2023-05-01T03:08:20.237Z,13.24
2023-05-01T03:10:59.828Z,14.10
2023-05-01T03:13:44.823Z,13.41
2023-05-01T03:16:24.189Z,12.45
2023-05-01T03:19:03.558Z,12.84
2023-05-01T03:21:43.076Z,12.39
2023-05-01T03:24:22.391Z,12.23
2023-05-01T03:27:01.672Z,11.52
2023-05-01T03:29:46.072Z,12.60
2023-05-01T03:32:25.717Z,12.46
2023-05-01T03:35:05.244Z,13.10
2023-05-01T03:37:44.702Z,14.47
2023-05-01T03:40:24.761Z,13.44
2023-05-01T03:43:04.109Z,13.29
2023-05-01T03:45:48.577Z,12.82
2023-05-01T03:48:28.410Z,11.85
2023-05-01T03:51:07.718Z,11.80
2023-05-01T03:53:47.029Z,12.05
2023-05-01T03:56:26.978Z,12.38
2023-05-01T03:59:07.732Z,12.05
2023-05-01T04:01:52.252Z,12.24
2023-05-01T04:04:31.652Z,11.44
2023-05-01T04:07:11.056Z,10.94
2023-05-01T04:09:50.359Z,10.42
2023-05-01T04:12:29.700Z,10.13
2023-05-01T04:15:09.778Z,10.87
2023-05-01T04:17:55.454Z,10.41
2023-05-01T04:20:35.334Z,10.36
2023-05-01T04:23:14.891Z,10.78
2023-05-01T04:25:54.261Z,10.29
2023-05-01T04:28:34.281Z,10.29
2023-05-01T04:31:13.709Z,10.22
2023-05-01T04:33:58.367Z,10.50
2023-05-01T04:36:37.693Z,10.35
2023-05-01T04:39:17.039Z,10.50
2023-05-01T04:41:56.408Z,10.51
2023-05-01T04:44:37.188Z,10.82
2023-05-01T04:47:16.521Z,11.15
2023-05-01T04:50:00.986Z,10.99
2023-05-01T04:52:40.326Z,10.58
2023-05-01T04:55:19.902Z,10.55
2023-05-01T04:57:59.191Z,10.18
2023-05-01T05:00:38.582Z,10.43
2023-05-01T05:03:20.265Z,10.73
2023-05-01T05:06:04.808Z,10.90
2023-05-01T05:08:44.171Z,10.83
2023-05-01T05:11:23.468Z,10.90
2023-05-01T05:14:02.874Z,10.31
2023-05-01T05:16:42.269Z,10.40
2023-05-01T05:19:21.634Z,10.90
2023-05-01T05:22:06.285Z,10.09
2023-05-01T05:24:46.334Z,10.92
2023-05-01T05:27:25.657Z,10.92
2023-05-01T05:30:04.989Z,10.03
2023-05-01T05:32:44.557Z,10.36
2023-05-01T05:35:24.030Z,10.52
2023-05-01T05:38:08.375Z,10.89
2023-05-01T05:40:48.410Z,10.29
2023-05-01T05:43:28.239Z,10.33
2023-05-01T05:46:09.020Z,10.82
2023-05-01T05:48:48.372Z,11.09
2023-05-01T05:51:27.863Z,11.19
2023-05-01T05:54:12.463Z,11.20
2023-05-01T05:56:51.786Z,11.46
2023-05-01T05:59:31.114Z,12.01
2023-05-01T06:02:10.640Z,11.80
2023-05-01T06:04:50.203Z,11.83
2023-05-01T06:07:30.070Z,11.80
2023-05-01T06:10:15.823Z,11.90
2023-05-01T06:13:01.153Z,12.03
2023-05-01T06:15:53.938Z,11.82
2023-05-01T06:18:33.350Z,12.41
2023-05-01T06:21:12.860Z,11.52
2023-05-01T06:23:52.306Z,11.78
2023-05-01T06:26:36.763Z,11.72
2023-05-01T06:29:16.163Z,12.13
2023-05-01T06:31:55.560Z,12.56
2023-05-01T06:34:34.947Z,12.24
2023-05-01T06:37:14.294Z,12.53
2023-05-01T06:39:55.508Z,12.70
2023-05-01T06:42:40.039Z,12.37
2023-05-01T06:45:19.464Z,13.00
2023-05-01T06:47:58.931Z,26.58
2023-05-01T06:50:38.383Z,16.29
2023-05-01T06:53:17.733Z,14.61
2023-05-01T06:55:57.272Z,13.69
2023-05-01T06:58:41.880Z,13.34
2023-05-01T07:01:22.010Z,14.11
2023-05-01T07:04:01.514Z,13.10
2023-05-01T07:06:41.080Z,13.67
2023-05-01T07:09:20.747Z,13.00
2023-05-01T07:12:00.169Z,12.89
2023-05-01T07:14:44.556Z,12.94
2023-05-01T07:17:23.901Z,12.85
2023-05-01T07:20:03.565Z,12.82
2023-05-01T07:22:42.868Z,12.86
2023-05-01T07:25:22.226Z,13.34
2023-05-01T07:28:03.061Z,13.33
2023-05-01T07:30:48.620Z,13.19
2023-05-01T07:33:27.963Z,13.07
2023-05-01T07:36:07.380Z,13.29
2023-05-01T07:38:46.993Z,13.05
2023-05-01T07:41:26.620Z,13.30
2023-05-01T07:44:06.170Z,13.79
2023-05-01T07:46:50.576Z,13.90
2023-05-01T07:49:29.936Z,13.54
2023-05-01T07:52:09.602Z,14.13
2023-05-01T07:54:48.980Z,14.38
2023-05-01T07:57:28.465Z,15.13
2023-05-01T08:00:07.805Z,14.54
2023-05-01T08:02:52.517Z,14.18
2023-05-01T08:05:32.922Z,14.00
2023-05-01T08:08:14.494Z,13.83
2023-05-01T08:10:53.856Z,14.92
2023-05-01T08:13:33.254Z,14.56
2023-05-01T08:16:13.168Z,14.17
2023-05-01T08:18:57.722Z,14.37
2023-05-01T08:21:37.736Z,14.47
2023-05-01T08:24:17.474Z,14.09
2023-05-01T08:26:58.185Z,14.26
2023-05-01T08:29:37.517Z,14.13
2023-05-01T08:32:16.949Z,14.70
2023-05-01T08:35:01.366Z,14.53
2023-05-01T08:37:40.807Z,14.56
2023-05-01T08:40:20.490Z,14.37
2023-05-01T08:43:00.123Z,14.91
2023-05-01T08:45:43.628Z,13.98
2023-05-01T08:48:24.745Z,14.51
2023-05-01T08:51:12.147Z,15.13
2023-05-01T08:53:53.538Z,14.98
2023-05-01T08:56:34.706Z,14.56
2023-05-01T08:59:18.411Z,18.31
2023-05-01T09:01:59.701Z,16.26
2023-05-01T09:04:40.211Z,14.83
2023-05-01T09:07:25.089Z,14.62
2023-05-01T09:10:04.677Z,14.55
2023-05-01T09:12:46.213Z,14.88
2023-05-01T09:15:25.808Z,16.85
2023-05-01T09:18:07.760Z,20.08
2023-05-01T09:20:48.480Z,15.51
2023-05-01T09:23:33.397Z,14.86
2023-05-01T09:26:13.206Z,14.62
2023-05-01T09:28:59.173Z,15.30
2023-05-01T09:31:38.983Z,15.60
2023-05-01T09:34:18.338Z,14.75
2023-05-01T09:36:57.788Z,14.50
2023-05-01T09:39:42.364Z,15.84
2023-05-01T09:42:31.485Z,15.08
2023-05-01T09:45:13.823Z,15.65
2023-05-01T09:47:55.107Z,14.67
2023-05-01T09:50:39.823Z,14.21
2023-05-01T09:53:19.153Z,14.12
2023-05-01T09:56:13.478Z,14.18
2023-05-01T09:58:53.125Z,14.28
2023-05-01T10:01:49.765Z,14.11
2023-05-01T10:04:38.412Z,14.12
2023-05-01T10:07:22.085Z,14.36
2023-05-01T10:10:03.021Z,14.45
2023-05-01T10:12:47.837Z,14.24
2023-05-01T10:15:27.384Z,14.67
2023-05-01T10:18:07.974Z,14.36
2023-05-01T10:20:47.576Z,14.79
2023-05-01T10:23:27.100Z,14.15
2023-05-01T10:26:09.811Z,14.73
2023-05-01T10:28:56.369Z,13.77
2023-05-01T10:31:38.196Z,13.95
2023-05-01T10:34:26.431Z,14.42
2023-05-01T10:37:14.191Z,13.62
2023-05-01T10:39:53.578Z,13.43
2023-05-01T10:42:32.931Z,13.22
2023-05-01T10:45:41.982Z,13.66
2023-05-01T10:48:58.358Z,13.03
2023-05-01T10:51:37.832Z,13.30
2023-05-01T10:54:31.368Z,13.08
2023-05-01T10:57:11.188Z,13.20
2023-05-01T11:00:18.077Z,13.19
2023-05-01T11:03:38.046Z,12.21
2023-05-01T11:06:17.440Z,12.67
2023-05-01T11:08:56.973Z,12.94
2023-05-01T11:11:55.507Z,12.77
2023-05-01T11:14:34.868Z,12.76
2023-05-01T11:17:14.541Z,12.47
2023-05-01T11:19:59.375Z,12.19
2023-05-01T11:22:39.064Z,12.35
2023-05-01T11:25:28.444Z,12.16
2023-05-01T11:28:10.922Z,12.60
2023-05-01T11:30:50.375Z,12.20
2023-05-01T11:33:33.789Z,11.96
2023-05-01T11:36:18.390Z,12.46
2023-05-01T11:38:58.116Z,12.35
2023-05-01T11:41:37.450Z,11.79
2023-05-01T11:44:21.734Z,12.58
2023-05-01T11:47:04.093Z,11.95
2023-05-01T11:49:43.703Z,12.01
2023-05-01T11:52:28.195Z,11.95
2023-05-01T11:55:08.426Z,12.82
2023-05-01T11:57:59.465Z,12.32
2023-05-01T12:00:41.293Z,12.18
2023-05-01T12:03:22.172Z,12.76
2023-05-01T12:06:01.826Z,12.32
2023-05-01T12:08:52.343Z,11.57
2023-05-01T12:11:31.792Z,11.83
2023-05-01T12:14:12.139Z,12.22
2023-05-01T12:16:52.299Z,11.87
2023-05-01T12:19:31.714Z,12.57
2023-05-01T12:22:13.793Z,11.88
2023-05-01T12:25:05.644Z,11.48
2023-05-01T12:27:50.531Z,12.56
2023-05-01T12:30:33.231Z,12.57
2023-05-01T12:33:20.224Z,11.92
2023-05-01T12:35:59.683Z,11.80
2023-05-01T12:38:39.060Z,12.40
2023-05-01T12:41:23.631Z,11.85
2023-05-01T12:44:02.990Z,12.47
2023-05-01T12:46:42.494Z,11.71
2023-05-01T12:49:25.222Z,12.29
2023-05-01T12:52:07.238Z,11.97
2023-05-01T12:54:51.781Z,11.84
2023-05-01T12:57:36.147Z,12.10
2023-05-01T13:00:17.288Z,10.85
2023-05-01T13:02:56.832Z,11.51
2023-05-01T13:05:36.668Z,11.15
2023-05-01T13:08:16.146Z,10.70
2023-05-01T13:10:57.065Z,10.65
2023-05-01T13:13:43.172Z,10.09
2023-05-01T13:16:26.028Z,10.11
2023-05-01T13:19:07.689Z,9.80
2023-05-01T13:21:55.111Z,9.67
2023-05-01T13:24:43.801Z,8.82
2023-05-01T13:27:28.721Z,8.40
2023-05-01T13:30:14.573Z,8.03
2023-05-01T13:32:54.587Z,8.38
2023-05-01T13:35:34.529Z,8.42
2023-05-01T13:38:24.526Z,8.50
2023-05-01T13:41:03.820Z,8.49
2023-05-01T13:43:44.154Z,8.36
2023-05-01T13:46:30.512Z,7.75
2023-05-01T13:49:14.481Z,6.98
2023-05-01T13:51:53.949Z,6.95
2023-05-01T13:54:33.292Z,7.25
2023-05-01T13:57:12.729Z,6.37
2023-05-01T13:59:54.321Z,6.64
2023-05-01T14:02:39.008Z,5.54
2023-05-01T14:05:23.035Z,5.94
2023-05-01T14:08:07.817Z,6.33
2023-05-01T14:10:47.636Z,6.80
2023-05-01T14:13:27.006Z,6.96
2023-05-01T14:16:07.450Z,6.60
2023-05-01T14:18:56.523Z,6.21
2023-05-01T14:21:36.516Z,6.52
2023-05-01T14:24:16.498Z,6.49
2023-05-01T14:26:56.182Z,6.40
2023-05-01T14:29:35.632Z,6.64
2023-05-01T14:32:14.951Z,6.87
2023-05-01T14:35:00.809Z,6.55
2023-05-01T14:37:40.070Z,6.53
2023-05-01T14:40:20.068Z,6.86
2023-05-01T14:43:00.450Z,6.67
2023-05-01T14:45:39.856Z,6.22
2023-05-01T14:48:29.225Z,6.32
2023-05-01T14:51:17.938Z,6.47
2023-05-01T14:53:58.334Z,6.48
2023-05-01T14:56:37.669Z,6.03
2023-05-01T14:59:17.685Z,6.55
2023-05-01T15:01:57.199Z,6.24
2023-05-01T15:04:36.768Z,6.13
2023-05-01T15:07:21.620Z,5.83
2023-05-01T15:10:01.350Z,6.09
2023-05-01T15:12:40.744Z,6.17
2023-05-01T15:15:20.157Z,5.99
2023-05-01T15:17:59.638Z,6.28
2023-05-01T15:20:39.245Z,6.21
2023-05-01T15:23:24.212Z,6.36
2023-05-01T15:26:03.502Z,6.77
2023-05-01T15:28:42.949Z,6.78
2023-05-01T15:31:22.636Z,6.41
2023-05-01T15:34:02.890Z,6.26
2023-05-01T15:36:42.428Z,6.56
2023-05-01T15:39:27.073Z,6.03
2023-05-01T15:42:06.752Z,5.98
2023-05-01T15:44:46.094Z,6.17
2023-05-01T15:47:25.677Z,5.98
2023-05-01T15:50:05.438Z,6.02
2023-05-01T15:52:45.017Z,6.08
2023-05-01T15:55:29.567Z,6.35
2023-05-01T15:58:09.133Z,5.88
2023-05-01T16:00:50.124Z,5.58
2023-05-01T16:03:29.615Z,5.46
2023-05-01T16:06:10.831Z,5.54
2023-05-01T16:08:50.477Z,5.65
2023-05-01T16:11:34.886Z,5.75
2023-05-01T16:14:16.149Z,5.27
2023-05-01T16:16:55.495Z,5.11
2023-05-01T16:19:37.917Z,5.15
2023-05-01T16:22:18.000Z,5.26
2023-05-01T16:24:57.399Z,5.27
2023-05-01T16:27:42.433Z,5.36
2023-05-01T16:30:23.267Z,5.05
2023-05-01T16:33:02.793Z,5.12
2023-05-01T16:35:42.151Z,5.47
2023-05-01T16:38:21.726Z,5.24
2023-05-01T16:41:01.122Z,5.18
2023-05-01T16:43:45.529Z,5.35
2023-05-01T16:46:24.906Z,5.23
2023-05-01T16:49:04.291Z,5.46
2023-05-01T16:51:43.856Z,5.09
2023-05-01T16:54:24.330Z,5.42
2023-05-01T16:57:04.404Z,5.04
2023-05-01T16:59:50.478Z,4.95
2023-05-01T17:02:29.871Z,5.12
2023-05-01T17:05:10.257Z,4.92
2023-05-01T17:07:49.538Z,5.37
2023-05-01T17:10:29.437Z,5.17
2023-05-01T17:13:09.125Z,5.52
2023-05-01T17:15:53.879Z,5.17
2023-05-01T17:18:33.210Z,5.79
2023-05-01T17:21:12.567Z,5.28
2023-05-01T17:23:52.328Z,5.78
2023-05-01T17:26:31.689Z,7.06
2023-05-01T17:29:10.992Z,6.84
2023-05-01T17:31:55.396Z,7.50
2023-05-01T17:34:34.859Z,6.38
2023-05-01T17:37:16.536Z,6.28
2023-05-01T17:39:55.897Z,6.42
2023-05-01T17:42:35.345Z,6.18
2023-05-01T17:45:16.162Z,6.37
2023-05-01T17:48:00.686Z,5.54
2023-05-01T17:50:40.087Z,6.11
2023-05-01T17:53:19.463Z,5.30
2023-05-01T17:55:59.554Z,5.71
2023-05-01T17:58:38.842Z,5.36
2023-05-01T18:01:18.208Z,5.45
2023-05-01T18:04:02.852Z,5.40
2023-05-01T18:06:42.483Z,5.60
2023-05-01T18:09:21.812Z,5.30
2023-05-01T18:12:01.136Z,5.21
2023-05-01T18:14:40.452Z,5.15
2023-05-01T18:17:20.650Z,5.87
2023-05-01T18:20:05.288Z,5.55
2023-05-01T18:22:44.628Z,5.02
2023-05-01T18:25:24.358Z,5.32
2023-05-01T18:28:03.684Z,5.73
2023-05-01T18:30:43.044Z,6.12
2023-05-01T18:33:22.696Z,6.06
2023-05-01T18:36:07.618Z,6.03
2023-05-01T18:38:46.920Z,5.92
2023-05-01T18:41:27.000Z,7.15
2023-05-01T18:44:06.355Z,8.31
2023-05-01T18:46:45.730Z,8.09
2023-05-01T18:49:26.231Z,6.45
2023-05-01T18:52:10.746Z,6.32
2023-05-01T18:54:50.625Z,6.35
2023-05-01T18:57:30.126Z,6.05
2023-05-01T19:00:09.475Z,6.54
2023-05-01T19:02:52.796Z,6.13
2023-05-01T19:05:32.784Z,6.34
2023-05-01T19:08:17.273Z,6.40
2023-05-01T19:10:56.621Z,6.17
2023-05-01T19:13:35.966Z,6.20
2023-05-01T19:16:15.493Z,6.36
2023-05-01T19:18:54.837Z,7.15
2023-05-01T19:21:34.419Z,6.93
2023-05-01T19:24:18.902Z,6.92
2023-05-01T19:26:58.267Z,6.81
2023-05-01T19:29:38.787Z,7.06
2023-05-01T19:32:18.906Z,7.28
2023-05-01T19:34:58.270Z,7.29
2023-05-01T19:37:37.799Z,7.20
2023-05-01T19:40:22.547Z,7.04
2023-05-01T19:43:01.897Z,6.96
2023-05-01T19:45:41.463Z,7.42
2023-05-01T19:48:20.825Z,7.13
2023-05-01T19:51:00.125Z,7.05
2023-05-01T19:53:39.978Z,7.03
2023-05-01T19:56:24.349Z,7.73
2023-05-01T19:59:03.796Z,7.51
2023-05-01T20:01:43.386Z,6.85
2023-05-01T20:04:24.142Z,6.94
2023-05-01T20:07:03.912Z,7.04
2023-05-01T20:09:43.324Z,7.20
2023-05-01T20:12:28.252Z,7.08
2023-05-01T20:15:08.053Z,7.17
2023-05-01T20:17:51.387Z,7.24
2023-05-01T20:20:30.758Z,7.13
2023-05-01T20:23:20.549Z,7.15
2023-05-01T20:25:59.942Z,7.53
2023-05-01T20:28:44.425Z,8.46
2023-05-01T20:31:23.841Z,8.31
2023-05-01T20:34:03.190Z,8.10
2023-05-01T20:36:42.513Z,8.76
2023-05-01T20:39:22.014Z,8.76
2023-05-01T20:42:02.103Z,8.04
2023-05-01T20:44:46.474Z,8.27
2023-05-01T20:47:25.855Z,8.63
2023-05-01T20:50:05.344Z,8.09
2023-05-01T20:52:44.980Z,8.09
2023-05-01T20:55:24.358Z,7.67
2023-05-01T20:58:03.764Z,7.94
2023-05-01T21:00:48.168Z,8.06
2023-05-01T21:03:27.517Z,8.04
2023-05-01T21:06:07.867Z,8.14
2023-05-01T21:08:47.495Z,8.40
2023-05-01T21:11:26.833Z,8.13
2023-05-01T21:14:06.218Z,8.04
2023-05-01T21:16:50.702Z,8.59
2023-05-01T21:19:30.268Z,7.86
2023-05-01T21:22:09.682Z,7.98
2023-05-01T21:24:51.201Z,8.19
2023-05-01T21:27:32.202Z,7.42
2023-05-01T21:30:13.335Z,7.55
2023-05-01T21:32:58.506Z,8.04
2023-05-01T21:35:38.208Z,8.12
2023-05-01T21:38:17.882Z,8.64
2023-05-01T21:40:57.284Z,8.21
2023-05-01T21:43:39.985Z,8.40
2023-05-01T21:46:23.885Z,8.44
2023-05-01T21:49:08.313Z,8.32
2023-05-01T21:51:47.742Z,8.17
2023-05-01T21:54:28.968Z,8.71
2023-05-01T21:57:09.250Z,9.78
2023-05-01T21:59:49.509Z,8.82
2023-05-01T22:02:28.854Z,8.72
2023-05-01T22:05:13.730Z,7.95
2023-05-01T22:07:55.174Z,8.24
2023-05-01T22:10:34.832Z,8.06
2023-05-01T22:13:14.395Z,8.42
2023-05-01T22:15:54.066Z,8.23
2023-05-01T22:18:33.536Z,8.69
2023-05-01T22:21:17.924Z,8.96
2023-05-01T22:23:57.283Z,8.97
2023-05-01T22:26:36.769Z,8.89
2023-05-01T22:29:16.045Z,8.73
2023-05-01T22:31:55.480Z,8.31
2023-05-01T22:34:35.079Z,8.76
2023-05-01T22:37:20.163Z,8.26
2023-05-01T22:39:59.990Z,8.47
2023-05-01T22:42:39.478Z,7.90
2023-05-01T22:45:18.817Z,8.18
2023-05-01T22:47:58.140Z,8.37
2023-05-01T22:50:37.468Z,8.19
2023-05-01T22:53:21.855Z,8.19
2023-05-01T22:56:01.219Z,9.07
2023-05-01T22:58:40.585Z,9.31
2023-05-01T23:01:20.056Z,8.00
2023-05-01T23:03:59.493Z,7.62
2023-05-01T23:06:39.032Z,7.91
2023-05-01T23:09:23.942Z,7.79
2023-05-01T23:12:03.236Z,7.84
2023-05-01T23:14:50.541Z,8.17
2023-05-01T23:17:29.850Z,7.97
2023-05-01T23:20:10.220Z,7.76
2023-05-01T23:22:49.550Z,8.25
2023-05-01T23:25:33.978Z,8.22
2023-05-01T23:28:13.272Z,8.40
2023-05-01T23:30:52.704Z,8.65
2023-05-01T23:33:34.702Z,8.53
2023-05-01T23:36:14.495Z,8.36
2023-05-01T23:38:54.653Z,8.84
2023-05-01T23:41:39.065Z,8.36
2023-05-01T23:44:18.710Z,8.45
2023-05-01T23:46:58.142Z,8.32
2023-05-01T23:49:37.903Z,8.23
2023-05-01T23:52:17.522Z,8.42
2023-05-01T23:54:56.918Z,8.64
2023-05-01T23:57:41.353Z,8.19
